createdAt,value
2023-08-08T00:01:10.540Z,75.98
2023-08-08T00:03:37.202Z,76.26
2023-08-08T00:06:03.862Z,75.52
2023-08-08T00:08:30.349Z,74.77
2023-08-08T00:10:57.454Z,74.49
2023-08-08T00:13:23.977Z,74.97
2023-08-08T00:15:50.542Z,74.25
2023-08-08T00:18:17.077Z,74.24
2023-08-08T00:20:43.595Z,73.44
2023-08-08T00:23:10.172Z,72.76
2023-08-08T00:25:37.319Z,72.20
2023-08-08T00:28:04.658Z,72.99
2023-08-08T00:30:31.227Z,73.10
2023-08-08T00:32:57.787Z,74.02
2023-08-08T00:35:24.325Z,75.59
2023-08-08T00:37:50.868Z,75.57
2023-08-08T00:40:17.441Z,75.48
2023-08-08T00:42:44.009Z,75.74
2023-08-08T00:45:10.736Z,75.88
2023-08-08T00:47:37.445Z,76.00
2023-08-08T00:50:05.266Z,75.95
2023-08-08T00:52:32.289Z,75.96
2023-08-08T00:55:00.237Z,75.59
2023-08-08T00:57:27.056Z,76.15
2023-08-08T00:59:53.612Z,75.89
2023-08-08T01:02:20.198Z,75.63
2023-08-08T01:04:46.995Z,76.23
2023-08-08T01:07:24.197Z,76.16
2023-08-08T01:09:54.658Z,77.01
2023-08-08T01:12:21.944Z,77.57
2023-08-08T01:14:48.473Z,76.63
2023-08-08T01:17:15.350Z,74.60
2023-08-08T01:19:42.480Z,74.71
2023-08-08T01:22:17.478Z,75.04
2023-08-08T01:24:45.553Z,75.25
2023-08-08T01:27:12.265Z,76.21
2023-08-08T01:29:40.267Z,77.20
2023-08-08T01:32:07.213Z,78.08
2023-08-08T01:34:33.761Z,78.75
2023-08-08T01:37:31.127Z,79.01
2023-08-08T01:40:00.446Z,79.54
2023-08-08T01:42:28.684Z,78.94
2023-08-08T01:44:56.994Z,79.03
2023-08-08T01:47:23.684Z,78.83
2023-08-08T01:49:50.294Z,78.84
2023-08-08T01:52:16.800Z,78.89
2023-08-08T01:54:43.883Z,78.83
2023-08-08T01:57:10.574Z,78.65
2023-08-08T01:59:37.018Z,78.55
2023-08-08T02:02:03.695Z,78.32
2023-08-08T02:04:30.580Z,79.35
2023-08-08T02:06:56.992Z,79.69
2023-08-08T02:09:23.573Z,79.60
2023-08-08T02:11:50.176Z,79.79
2023-08-08T02:14:16.651Z,80.85
2023-08-08T02:16:43.617Z,80.16
2023-08-08T02:19:10.222Z,80.57
2023-08-08T02:21:36.807Z,80.65
2023-08-08T02:24:03.611Z,80.70
2023-08-08T02:26:30.091Z,81.01
2023-08-08T02:28:56.627Z,81.85
2023-08-08T02:31:23.173Z,81.98
2023-08-08T02:33:51.445Z,81.09
2023-08-08T02:36:19.153Z,80.40
2023-08-08T02:38:46.220Z,80.18
2023-08-08T02:41:12.683Z,80.48
2023-08-08T02:43:39.204Z,80.78
2023-08-08T02:46:05.717Z,81.35
2023-08-08T02:48:32.464Z,81.43
2023-08-08T02:50:58.989Z,81.30
2023-08-08T02:53:25.486Z,80.75
2023-08-08T02:55:51.987Z,79.92
2023-08-08T02:58:18.522Z,78.90
2023-08-08T03:00:45.071Z,78.19
2023-08-08T03:03:11.548Z,78.77
2023-08-08T03:05:38.019Z,79.95
2023-08-08T03:08:04.835Z,80.28
2023-08-08T03:10:31.253Z,80.62
2023-08-08T03:12:57.698Z,80.09
2023-08-08T03:15:24.443Z,80.62
2023-08-08T03:17:50.994Z,80.92
2023-08-08T03:20:17.716Z,81.00
2023-08-08T03:22:44.360Z,81.89
2023-08-08T03:25:11.331Z,81.43
2023-08-08T03:27:37.811Z,81.57
2023-08-08T03:30:04.752Z,81.19
2023-08-08T03:32:31.348Z,82.13
2023-08-08T03:34:57.831Z,82.51
2023-08-08T03:37:24.528Z,82.62
2023-08-08T03:39:50.959Z,82.84
2023-08-08T03:42:17.695Z,81.79
2023-08-08T03:44:46.221Z,82.09
2023-08-08T03:47:19.303Z,82.72
2023-08-08T03:49:46.824Z,82.84
2023-08-08T03:52:13.904Z,82.82
2023-08-08T03:54:40.801Z,82.75
2023-08-08T03:57:07.652Z,83.36
2023-08-08T03:59:34.163Z,82.03
2023-08-08T04:02:00.982Z,81.59
2023-08-08T04:04:27.737Z,81.78
2023-08-08T04:06:54.191Z,81.93
2023-08-08T04:09:20.684Z,82.30
2023-08-08T04:11:47.153Z,81.81
2023-08-08T04:14:13.732Z,81.64
2023-08-08T04:16:40.775Z,81.74
2023-08-08T04:19:07.310Z,82.18
2023-08-08T04:21:33.897Z,82.94
2023-08-08T04:24:01.408Z,82.42
2023-08-08T04:26:27.892Z,81.90
2023-08-08T04:28:54.502Z,81.84
2023-08-08T04:31:21.032Z,81.70
2023-08-08T04:33:47.584Z,81.57
2023-08-08T04:36:14.099Z,82.36
2023-08-08T04:38:40.605Z,82.63
2023-08-08T04:41:07.041Z,83.19
2023-08-08T04:43:33.477Z,83.25
2023-08-08T04:45:59.958Z,82.93
2023-08-08T04:48:26.458Z,82.74
2023-08-08T04:50:52.955Z,83.05
2023-08-08T04:53:19.496Z,83.01
2023-08-08T04:55:45.950Z,82.93
2023-08-08T04:58:12.462Z,82.54
2023-08-08T05:00:39.089Z,82.81
2023-08-08T05:03:05.695Z,82.33
2023-08-08T05:05:32.242Z,82.88
2023-08-08T05:07:58.755Z,82.30
2023-08-08T05:10:25.357Z,83.30
2023-08-08T05:12:51.917Z,83.96
2023-08-08T05:15:18.386Z,84.41
2023-08-08T05:17:45.006Z,84.88
2023-08-08T05:20:11.875Z,85.46
2023-08-08T05:22:38.442Z,84.23
2023-08-08T05:25:05.425Z,84.40
2023-08-08T05:27:31.983Z,83.47
2023-08-08T05:29:58.590Z,82.55
2023-08-08T05:32:25.098Z,83.33
2023-08-08T05:34:52.526Z,83.59
2023-08-08T05:37:19.131Z,83.66
2023-08-08T05:39:46.128Z,82.32
2023-08-08T05:42:12.861Z,81.56
2023-08-08T05:44:39.514Z,80.86
2023-08-08T05:47:06.373Z,80.62
2023-08-08T05:49:32.907Z,80.26
2023-08-08T05:51:59.991Z,80.53
2023-08-08T05:54:26.736Z,79.84
2023-08-08T05:56:54.241Z,79.84
2023-08-08T05:59:20.867Z,77.70
2023-08-08T06:01:47.539Z,77.46
2023-08-08T06:04:15.062Z,77.15
2023-08-08T06:06:42.283Z,76.40
2023-08-08T06:09:09.852Z,76.52
2023-08-08T06:11:36.525Z,75.60
2023-08-08T06:14:03.643Z,75.66
2023-08-08T06:16:30.590Z,75.93
2023-08-08T06:18:57.154Z,74.67
2023-08-08T06:21:23.667Z,74.69
2023-08-08T06:23:51.100Z,73.78
2023-08-08T06:26:17.650Z,73.48
2023-08-08T06:28:44.255Z,72.82
2023-08-08T06:31:10.788Z,74.40
2023-08-08T06:33:37.386Z,76.39
2023-08-08T06:36:04.435Z,76.71
2023-08-08T06:38:34.837Z,76.68
2023-08-08T06:41:04.560Z,77.44
2023-08-08T06:43:32.460Z,77.89
2023-08-08T06:45:58.968Z,78.53
2023-08-08T06:48:25.513Z,78.35
2023-08-08T06:50:52.107Z,76.95
2023-08-08T06:53:19.230Z,77.88
2023-08-08T06:55:45.740Z,77.06
2023-08-08T06:58:12.247Z,78.34
2023-08-08T07:00:38.783Z,78.59
2023-08-08T07:03:05.886Z,78.88
2023-08-08T07:05:32.444Z,79.49
2023-08-08T07:07:58.995Z,79.53
2023-08-08T07:10:25.504Z,79.70
2023-08-08T07:12:52.610Z,79.12
2023-08-08T07:15:20.825Z,79.23
2023-08-08T07:17:47.455Z,79.98
2023-08-08T07:20:15.094Z,80.21
2023-08-08T07:22:41.797Z,79.22
2023-08-08T07:25:08.711Z,78.32
2023-08-08T07:27:35.205Z,77.31
2023-08-08T07:30:02.275Z,76.66
2023-08-08T07:32:29.893Z,76.64
2023-08-08T07:34:57.397Z,76.96
2023-08-08T07:37:23.864Z,78.04
2023-08-08T07:39:52.605Z,78.84
2023-08-08T07:42:19.118Z,80.09
2023-08-08T07:44:45.568Z,79.39
2023-08-08T07:47:13.743Z,78.02
2023-08-08T07:49:40.326Z,77.54
2023-08-08T07:52:08.076Z,74.04
2023-08-08T07:54:35.314Z,72.47
2023-08-08T07:57:01.794Z,73.79
2023-08-08T07:59:28.294Z,74.39
2023-08-08T08:01:54.875Z,76.23
2023-08-08T08:04:21.429Z,77.02
2023-08-08T08:06:48.408Z,75.57
2023-08-08T08:09:15.021Z,75.05
2023-08-08T08:11:41.528Z,74.35
2023-08-08T08:14:08.522Z,75.80
2023-08-08T08:16:35.787Z,76.25
2023-08-08T08:19:02.352Z,75.51
2023-08-08T08:21:28.900Z,75.08
2023-08-08T08:23:55.551Z,74.38
2023-08-08T08:26:22.002Z,74.56
2023-08-08T08:28:48.436Z,73.08
2023-08-08T08:31:14.965Z,74.50
2023-08-08T08:33:41.555Z,75.81
2023-08-08T08:36:08.052Z,75.98
2023-08-08T08:38:34.514Z,76.66
2023-08-08T08:41:03.361Z,76.07
2023-08-08T08:43:31.988Z,77.59
2023-08-08T08:46:03.590Z,79.35
2023-08-08T08:48:30.697Z,81.91
2023-08-08T08:50:58.682Z,84.85
2023-08-08T08:53:25.228Z,85.76
2023-08-08T08:55:52.911Z,86.71
2023-08-08T08:58:20.911Z,85.37
2023-08-08T09:00:47.932Z,84.18
2023-08-08T09:03:14.643Z,83.33
2023-08-08T09:05:43.003Z,81.60
2023-08-08T09:08:10.377Z,78.31
2023-08-08T09:10:36.885Z,76.32
2023-08-08T09:13:03.422Z,77.28
2023-08-08T09:15:34.545Z,79.25
2023-08-08T09:18:02.389Z,80.18
2023-08-08T09:20:29.534Z,80.36
2023-08-08T09:22:56.550Z,78.13
2023-08-08T09:25:24.494Z,78.90
2023-08-08T09:27:54.467Z,79.25
2023-08-08T09:30:21.150Z,79.74
2023-08-08T09:32:48.187Z,78.64
2023-08-08T09:35:15.902Z,77.85
2023-08-08T09:37:43.023Z,76.88
2023-08-08T09:40:12.222Z,76.93
2023-08-08T09:42:41.131Z,77.33
2023-08-08T09:45:09.760Z,78.66
2023-08-08T09:47:37.371Z,80.65
2023-08-08T09:50:06.282Z,83.33
2023-08-08T09:52:34.813Z,88.17
2023-08-08T09:55:01.640Z,91.38
2023-08-08T09:57:28.548Z,92.17
2023-08-08T09:59:56.358Z,90.28
2023-08-08T10:02:22.883Z,87.56
2023-08-08T10:04:49.584Z,83.83
2023-08-08T10:07:16.193Z,84.96
2023-08-08T10:09:42.990Z,83.89
2023-08-08T10:12:09.913Z,81.04
2023-08-08T10:14:38.975Z,80.33
2023-08-08T10:17:06.529Z,81.73
2023-08-08T10:19:33.668Z,81.96
2023-08-08T10:22:05.045Z,81.35
2023-08-08T10:24:39.672Z,81.42
2023-08-08T10:27:06.358Z,79.57
2023-08-08T10:29:34.789Z,79.06
2023-08-08T10:32:04.335Z,77.41
2023-08-08T10:34:43.698Z,75.69
2023-08-08T10:37:16.610Z,72.62
2023-08-08T10:39:58.675Z,71.72
2023-08-08T10:42:27.380Z,72.64
2023-08-08T10:44:56.140Z,73.63
2023-08-08T10:47:26.742Z,72.45
2023-08-08T10:50:07.930Z,75.36
2023-08-08T10:52:54.122Z,75.27
2023-08-08T10:55:22.672Z,74.37
2023-08-08T10:58:00.011Z,71.55
2023-08-08T11:00:30.732Z,71.02
2023-08-08T11:02:58.911Z,69.93
2023-08-08T11:05:27.531Z,70.62
2023-08-08T11:07:55.542Z,69.97
2023-08-08T11:10:23.551Z,68.68
2023-08-08T11:12:59.016Z,70.03
2023-08-08T11:15:25.605Z,68.10
2023-08-08T11:17:53.743Z,68.82
2023-08-08T11:20:20.374Z,69.37
2023-08-08T11:22:53.214Z,67.19
2023-08-08T11:25:19.742Z,67.06
2023-08-08T11:27:53.270Z,68.27
2023-08-08T11:30:21.471Z,67.63
2023-08-08T11:33:15.272Z,69.28
2023-08-08T11:35:36.276Z,69.63
2023-08-08T11:38:05.248Z,68.62
2023-08-08T11:40:32.567Z,66.72
2023-08-08T11:42:59.921Z,66.81
2023-08-08T11:45:26.740Z,67.81
2023-08-08T11:47:56.806Z,66.32
2023-08-08T11:50:25.788Z,66.10
2023-08-08T11:52:56.805Z,67.53
2023-08-08T11:55:29.958Z,67.15
2023-08-08T11:58:03.581Z,67.23
2023-08-08T12:00:31.576Z,68.14
2023-08-08T12:02:59.595Z,69.01
2023-08-08T12:05:26.690Z,67.26
2023-08-08T12:07:53.381Z,66.34
2023-08-08T12:10:22.625Z,64.26
2023-08-08T12:12:56.109Z,65.64
2023-08-08T12:15:22.741Z,66.58
2023-08-08T12:17:50.340Z,68.20
2023-08-08T12:20:17.220Z,68.07
2023-08-08T12:22:43.781Z,67.02
2023-08-08T12:25:10.727Z,68.16
2023-08-08T12:27:39.916Z,67.06
2023-08-08T12:30:08.127Z,67.75
2023-08-08T12:32:34.653Z,68.00
2023-08-08T12:35:01.110Z,65.81
2023-08-08T12:37:27.603Z,67.12
2023-08-08T12:39:54.033Z,65.40
2023-08-08T12:42:20.536Z,64.99
2023-08-08T12:44:48.017Z,66.53
2023-08-08T12:47:15.957Z,65.38
2023-08-08T12:49:43.108Z,66.61
2023-08-08T12:52:10.272Z,65.11
2023-08-08T12:54:37.273Z,65.79
2023-08-08T12:57:05.046Z,64.30
2023-08-08T12:59:31.721Z,63.64
2023-08-08T13:01:58.651Z,64.62
2023-08-08T13:04:26.306Z,63.29
2023-08-08T13:06:52.839Z,65.19
2023-08-08T13:09:19.437Z,63.70
2023-08-08T13:11:46.434Z,63.38
2023-08-08T13:14:12.917Z,61.45
2023-08-08T13:16:39.597Z,63.11
2023-08-08T13:19:06.431Z,62.53
2023-08-08T13:21:33.089Z,61.24
2023-08-08T13:23:59.554Z,60.73
2023-08-08T13:26:26.108Z,59.16
2023-08-08T13:28:52.785Z,57.96
2023-08-08T13:31:19.295Z,58.80
2023-08-08T13:33:45.818Z,58.17
2023-08-08T13:36:12.353Z,59.28
2023-08-08T13:38:39.006Z,57.31
2023-08-08T13:41:05.523Z,58.04
2023-08-08T13:43:32.021Z,56.61
2023-08-08T13:45:58.688Z,55.31
2023-08-08T13:48:25.365Z,54.19
2023-08-08T13:50:52.362Z,57.33
2023-08-08T13:53:18.832Z,55.67
2023-08-08T13:55:45.816Z,55.83
2023-08-08T13:58:12.442Z,57.48
2023-08-08T14:00:38.921Z,56.19
2023-08-08T14:03:06.164Z,55.08
2023-08-08T14:05:32.859Z,53.02
2023-08-08T14:07:59.353Z,52.83
2023-08-08T14:10:25.842Z,51.06
2023-08-08T14:12:52.454Z,52.14
2023-08-08T14:15:19.011Z,52.86
2023-08-08T14:17:46.601Z,51.18
2023-08-08T14:20:13.178Z,52.20
2023-08-08T14:22:39.772Z,50.13
2023-08-08T14:25:09.965Z,51.42
2023-08-08T14:27:36.622Z,50.21
2023-08-08T14:30:05.030Z,49.79
2023-08-08T14:32:31.819Z,48.65
2023-08-08T14:34:59.866Z,47.72
2023-08-08T14:37:26.588Z,49.26
2023-08-08T14:39:53.100Z,50.33
2023-08-08T14:42:20.327Z,48.24
2023-08-08T14:44:46.764Z,48.95
2023-08-08T14:47:13.277Z,47.51
2023-08-08T14:49:39.748Z,45.79
2023-08-08T14:52:06.565Z,45.83
2023-08-08T14:54:33.024Z,47.63
2023-08-08T14:57:00.944Z,49.88
2023-08-08T14:59:27.954Z,51.33
2023-08-08T15:01:54.555Z,49.76
2023-08-08T15:04:21.168Z,47.66
2023-08-08T15:06:47.990Z,48.07
2023-08-08T15:09:14.534Z,46.55
2023-08-08T15:11:41.600Z,45.86
2023-08-08T15:14:08.111Z,47.32
2023-08-08T15:16:34.579Z,47.69
2023-08-08T15:19:01.100Z,48.83
2023-08-08T15:21:27.544Z,48.30
2023-08-08T15:23:54.147Z,49.12
2023-08-08T15:26:23.244Z,47.43
2023-08-08T15:28:50.421Z,49.62
2023-08-08T15:31:19.638Z,52.03
2023-08-08T15:33:46.520Z,53.48
2023-08-08T15:36:13.032Z,52.33
2023-08-08T15:38:39.558Z,51.34
2023-08-08T15:41:06.030Z,51.82
2023-08-08T15:43:32.518Z,50.31
2023-08-08T15:46:00.284Z,49.08
2023-08-08T15:48:27.154Z,47.71
2023-08-08T15:50:53.740Z,47.45
2023-08-08T15:53:20.867Z,48.03
2023-08-08T15:55:47.642Z,50.09
2023-08-08T15:58:14.222Z,47.66
2023-08-08T16:00:40.864Z,48.05
2023-08-08T16:03:07.485Z,53.57
2023-08-08T16:05:34.211Z,54.70
2023-08-08T16:08:02.089Z,56.55
2023-08-08T16:10:28.680Z,58.56
2023-08-08T16:12:55.466Z,58.66
2023-08-08T16:15:22.781Z,58.38
2023-08-08T16:17:49.343Z,58.33
2023-08-08T16:20:18.350Z,57.62
2023-08-08T16:22:46.115Z,58.14
2023-08-08T16:25:12.618Z,57.09
2023-08-08T16:27:39.253Z,51.71
2023-08-08T16:30:06.330Z,53.32
2023-08-08T16:32:33.041Z,54.63
2023-08-08T16:34:59.809Z,56.32
2023-08-08T16:37:26.311Z,54.40
2023-08-08T16:39:52.839Z,54.20
2023-08-08T16:42:19.326Z,54.66
2023-08-08T16:44:45.812Z,54.79
2023-08-08T16:47:12.276Z,54.48
2023-08-08T16:49:38.800Z,56.50
2023-08-08T16:52:05.442Z,53.37
2023-08-08T16:54:34.133Z,48.88
2023-08-08T16:57:00.702Z,50.05
2023-08-08T16:59:27.156Z,54.30
2023-08-08T17:01:53.718Z,53.22
2023-08-08T17:04:20.786Z,47.07
2023-08-08T17:06:47.260Z,46.41
2023-08-08T17:09:14.600Z,50.74
2023-08-08T17:11:41.097Z,52.81
2023-08-08T17:14:07.760Z,48.33
2023-08-08T17:16:34.442Z,46.29
2023-08-08T17:19:01.073Z,46.17
2023-08-08T17:21:27.570Z,46.54
2023-08-08T17:23:54.277Z,49.86
2023-08-08T17:26:20.768Z,53.44
2023-08-08T17:28:48.433Z,56.13
2023-08-08T17:31:14.991Z,57.39
2023-08-08T17:33:41.561Z,58.27
2023-08-08T17:36:08.086Z,58.27
2023-08-08T17:38:34.583Z,59.45
2023-08-08T17:41:01.087Z,59.59
2023-08-08T17:43:27.968Z,58.88
2023-08-08T17:45:57.016Z,58.78
2023-08-08T17:48:23.617Z,59.95
2023-08-08T17:50:50.296Z,60.45
2023-08-08T17:53:16.750Z,61.40
2023-08-08T17:55:43.282Z,61.42
2023-08-08T17:58:09.772Z,63.01
2023-08-08T18:00:36.313Z,62.91
2023-08-08T18:03:03.064Z,62.29
2023-08-08T18:05:30.497Z,62.65
2023-08-08T18:07:57.152Z,62.02
2023-08-08T18:10:23.675Z,62.62
2023-08-08T18:12:50.179Z,63.04
2023-08-08T18:15:16.646Z,63.12
2023-08-08T18:17:43.184Z,63.27
2023-08-08T18:20:10.630Z,64.14
2023-08-08T18:22:37.669Z,64.62
2023-08-08T18:25:04.927Z,64.62
2023-08-08T18:27:31.587Z,64.85
2023-08-08T18:29:58.208Z,65.42
2023-08-08T18:32:24.874Z,65.47
2023-08-08T18:34:51.545Z,65.56
2023-08-08T18:37:18.060Z,66.25
2023-08-08T18:39:44.562Z,66.15
2023-08-08T18:42:11.040Z,66.75
2023-08-08T18:44:37.554Z,65.96
2023-08-08T18:47:04.489Z,67.28
2023-08-08T18:49:31.069Z,66.60
2023-08-08T18:51:57.565Z,66.24
2023-08-08T18:54:24.103Z,67.38
2023-08-08T18:56:51.241Z,68.54
2023-08-08T18:59:17.764Z,68.71
2023-08-08T19:01:44.240Z,69.37
2023-08-08T19:04:10.812Z,70.40
2023-08-08T19:06:37.381Z,70.56
2023-08-08T19:09:09.471Z,70.07
2023-08-08T19:11:37.146Z,70.65
2023-08-08T19:14:04.705Z,71.13
2023-08-08T19:16:32.070Z,70.55
2023-08-08T19:18:58.676Z,70.70
2023-08-08T19:21:25.234Z,71.25
2023-08-08T19:23:52.583Z,71.54
2023-08-08T19:26:19.046Z,71.96
2023-08-08T19:28:46.706Z,72.45
2023-08-08T19:31:15.302Z,72.32
2023-08-08T19:33:51.673Z,72.30
2023-08-08T19:36:22.759Z,72.25
2023-08-08T19:38:49.200Z,72.62
2023-08-08T19:41:15.671Z,72.54
2023-08-08T19:43:42.291Z,72.70
2023-08-08T19:46:09.590Z,72.59
2023-08-08T19:48:36.328Z,72.60
2023-08-08T19:51:03.056Z,72.89
2023-08-08T19:53:29.756Z,72.49
2023-08-08T19:55:59.039Z,72.95
2023-08-08T19:58:26.666Z,73.03
2023-08-08T20:00:53.372Z,74.45
2023-08-08T20:03:19.997Z,74.03
2023-08-08T20:05:46.885Z,73.59
2023-08-08T20:08:13.391Z,74.22
2023-08-08T20:10:39.931Z,74.29
2023-08-08T20:13:06.454Z,75.63
2023-08-08T20:15:32.884Z,74.87
2023-08-08T20:17:59.457Z,74.57
2023-08-08T20:20:26.145Z,74.81
2023-08-08T20:22:52.659Z,74.54
2023-08-08T20:25:19.212Z,74.78
2023-08-08T20:27:45.656Z,75.30
2023-08-08T20:30:12.634Z,76.05
2023-08-08T20:32:39.558Z,75.83
2023-08-08T20:35:06.466Z,75.33
2023-08-08T20:37:33.024Z,75.53
2023-08-08T20:39:59.595Z,75.76
2023-08-08T20:42:26.080Z,75.89
2023-08-08T20:44:52.545Z,77.74
2023-08-08T20:47:19.011Z,79.05
2023-08-08T20:49:45.526Z,77.89
2023-08-08T20:52:11.990Z,78.63
2023-08-08T20:54:38.465Z,78.56
2023-08-08T20:57:05.190Z,79.05
2023-08-08T20:59:32.402Z,79.27
2023-08-08T21:01:58.957Z,79.61
2023-08-08T21:04:26.133Z,79.78
2023-08-08T21:06:52.776Z,80.60
2023-08-08T21:09:19.236Z,80.78
2023-08-08T21:11:45.688Z,81.01
2023-08-08T21:14:12.202Z,80.99
2023-08-08T21:16:38.753Z,81.66
2023-08-08T21:19:05.321Z,82.07
2023-08-08T21:21:32.072Z,82.46
2023-08-08T21:23:58.603Z,81.91
2023-08-08T21:26:33.848Z,81.93
2023-08-08T21:29:05.067Z,82.50
2023-08-08T21:31:31.603Z,82.69
2023-08-08T21:33:58.167Z,82.56
2023-08-08T21:36:24.734Z,82.64
2023-08-08T21:38:51.187Z,83.04
2023-08-08T21:41:17.670Z,83.51
2023-08-08T21:43:44.208Z,83.82
2023-08-08T21:46:10.803Z,84.07
2023-08-08T21:48:37.732Z,84.14
2023-08-08T21:51:04.273Z,84.22
2023-08-08T21:53:30.768Z,84.43
2023-08-08T21:55:57.262Z,84.92
2023-08-08T21:58:23.768Z,84.92
2023-08-08T22:00:50.374Z,85.12
2023-08-08T22:03:17.041Z,85.40
2023-08-08T22:05:43.510Z,85.56
2023-08-08T22:08:10.014Z,85.28
2023-08-08T22:10:36.750Z,85.77
2023-08-08T22:13:05.014Z,85.96
2023-08-08T22:15:33.060Z,86.33
2023-08-08T22:18:11.188Z,86.32
2023-08-08T22:20:37.771Z,86.58
2023-08-08T22:23:09.847Z,86.59
2023-08-08T22:25:44.780Z,86.61
2023-08-08T22:28:11.383Z,86.95
2023-08-08T22:30:37.858Z,86.98
2023-08-08T22:33:04.553Z,86.90
2023-08-08T22:35:31.080Z,86.98
2023-08-08T22:37:57.615Z,87.49
2023-08-08T22:40:24.034Z,87.42
2023-08-08T22:42:52.204Z,87.62
2023-08-08T22:45:19.298Z,87.97
2023-08-08T22:47:46.127Z,87.90
2023-08-08T22:50:12.636Z,88.41
2023-08-08T22:52:39.185Z,88.23
2023-08-08T22:55:06.043Z,88.59
2023-08-08T22:57:32.524Z,88.72
2023-08-08T22:59:59.085Z,88.51
2023-08-08T23:02:25.673Z,88.93
2023-08-08T23:04:52.177Z,88.97
2023-08-08T23:07:19.541Z,89.07
2023-08-08T23:09:46.310Z,89.47
2023-08-08T23:12:12.787Z,89.13
2023-08-08T23:14:39.298Z,89.17
2023-08-08T23:17:05.799Z,89.32
2023-08-08T23:19:32.233Z,89.25
2023-08-08T23:21:58.769Z,89.44
2023-08-08T23:24:25.295Z,89.88
2023-08-08T23:26:51.996Z,89.90
2023-08-08T23:29:18.528Z,89.91
2023-08-08T23:31:45.038Z,90.03
2023-08-08T23:34:11.553Z,90.33
2023-08-08T23:36:38.281Z,90.55
2023-08-08T23:39:09.041Z,90.34
2023-08-08T23:41:36.004Z,90.34
2023-08-08T23:44:02.502Z,90.60
2023-08-08T23:46:29.020Z,90.74
2023-08-08T23:48:55.549Z,91.55
2023-08-08T23:51:22.044Z,91.50
2023-08-08T23:53:48.593Z,91.61
2023-08-08T23:56:15.133Z,91.76
2023-08-08T23:58:41.619Z,91.74
